Time;durP1;ratioP1;P1;durP2;ratioP2;P2;SDS_P1;SDS_P2;PMS_P1;PMS_P2;Temp;Humidity;BMP_temperature;BMP_pressure;BME280_temperature;BME280_humidity;BME280_pressure;Samples;Min_cycle;Max_cycle;Signal;HPM_P1;HPM_P2
2023/10/30 00:02:18;;;;;;;0.20;0.20;;;;;;;18.22;56.74;99795.22;5072795;28;20104;-63
2023/10/30 00:04:43;;;;;;;0.20;0.20;;;;;;;18.15;56.54;99798.34;5072900;28;20464;-63
2023/10/30 00:07:08;;;;;;;0.10;0.10;;;;;;;18.20;56.67;99797.44;5072007;28;20051;-63
2023/10/30 00:09:34;;;;;;;0.20;0.20;;;;;;;17.60;58.70;99804.72;5071806;28;20040;-62
2023/10/30 00:12:00;;;;;;;0.30;0.30;;;;;;;17.52;59.01;99795.34;5071838;28;20116;-62
2023/10/30 00:14:26;;;;;;;0.20;0.20;;;;;;;17.67;58.38;99798.94;5053568;28;20127;-63
2023/10/30 00:16:51;;;;;;;0.30;0.30;;;;;;;17.65;59.31;99793.75;5072386;28;20036;-63
2023/10/30 00:19:17;;;;;;;0.20;0.20;;;;;;;18.04;57.41;99809.69;5072180;28;20040;-61
2023/10/30 00:21:43;;;;;;;0.40;0.40;;;;;;;17.69;58.46;99813.03;5069708;28;20147;-62
2023/10/30 00:24:09;;;;;;;0.30;0.30;;;;;;;17.70;58.46;99818.16;5072223;28;20032;-62
2023/10/30 00:26:35;;;;;;;0.17;0.17;;;;;;;18.14;57.67;99817.66;5072010;28;20050;-64
2023/10/30 00:29:01;;;;;;;0.20;0.20;;;;;;;18.31;56.61;99810.53;5072524;28;20044;-63
2023/10/30 00:31:26;;;;;;;0.10;0.10;;;;;;;17.26;59.57;99821.22;5071933;28;20554;-62
2023/10/30 00:33:53;;;;;;;0.30;0.30;;;;;;;17.76;58.41;99822.41;5071997;28;20041;-63
2023/10/30 00:36:18;;;;;;;0.30;0.30;;;;;;;17.84;58.31;99820.91;5071618;28;20101;-62
2023/10/30 00:38:44;;;;;;;0.20;0.20;;;;;;;17.10;60.83;99827.19;5053165;28;20032;-62
2023/10/30 00:41:12;;;;;;;0.20;0.20;;;;;;;17.53;59.31;99826.81;5072190;28;20074;-62
2023/10/30 00:43:38;;;;;;;0.30;0.30;;;;;;;17.18;60.90;99821.91;5071601;28;20119;-62
2023/10/30 00:46:06;;;;;;;0.15;0.15;;;;;;;17.20;60.89;99824.31;5071559;28;20423;-63
2023/10/30 00:48:32;;;;;;;0.20;0.20;;;;;;;17.48;59.70;99818.78;5071540;28;20055;-63
2023/10/30 00:50:57;;;;;;;0.20;0.20;;;;;;;17.16;60.69;99820.59;5070423;28;20504;-64
2023/10/30 00:53:22;;;;;;;0.30;0.30;;;;;;;17.39;59.83;99836.00;5071471;28;20032;-63
2023/10/30 00:55:51;;;;;;;0.32;0.32;;;;;;;17.35;60.47;99838.50;5072293;28;20472;-61
2023/10/30 00:58:18;;;;;;;0.17;0.17;;;;;;;17.07;62.04;99844.03;5071138;28;20036;-62
2023/10/30 01:00:43;;;;;;;0.22;0.22;;;;;;;16.91;62.15;99846.16;5071201;28;20089;-63
2023/10/30 01:03:09;;;;;;;0.30;0.30;;;;;;;17.56;59.37;99833.59;5071239;28;20491;-63
2023/10/30 01:05:34;;;;;;;0.20;0.20;;;;;;;17.71;58.83;99838.00;5071571;28;20043;-63
2023/10/30 01:08:00;;;;;;;0.20;0.20;;;;;;;17.50;60.61;99832.88;5071810;28;20024;-62
2023/10/30 01:10:25;;;;;;;0.30;0.30;;;;;;;17.42;60.69;99838.13;5071390;28;20040;-63
2023/10/30 01:12:51;;;;;;;0.20;0.20;;;;;;;17.79;58.83;99846.25;5071144;28;20048;-63
2023/10/30 01:15:17;;;;;;;0.13;0.13;;;;;;;17.50;59.88;99846.44;5070636;28;20502;-62
2023/10/30 01:17:42;;;;;;;0.20;0.20;;;;;;;17.56;59.04;99855.31;5070735;28;20131;-62
2023/10/30 01:20:08;;;;;;;0.20;0.20;;;;;;;17.18;61.25;99861.81;5071535;28;20112;-63
2023/10/30 01:22:34;;;;;;;0.15;0.15;;;;;;;17.73;58.67;99861.03;5070689;28;20079;-63
2023/10/30 01:24:59;;;;;;;0.20;0.20;;;;;;;17.19;61.79;99872.41;5071064;28;20111;-62
2023/10/30 01:27:25;;;;;;;0.22;0.22;;;;;;;17.19;61.25;99883.25;5070862;28;20044;-63
2023/10/30 01:29:50;;;;;;;0.20;0.20;;;;;;;17.39;60.50;99874.03;5070812;28;20032;-63
2023/10/30 01:32:15;;;;;;;0.30;0.30;;;;;;;18.12;57.85;99866.91;5087039;28;20035;-62
2023/10/30 01:34:41;;;;;;;0.20;0.20;;;;;;;17.36;59.57;99875.41;5072729;28;20028;-63
2023/10/30 01:37:06;;;;;;;0.28;0.28;;;;;;;17.03;61.58;99884.53;5070479;28;20412;-63
2023/10/30 01:39:32;;;;;;;0.20;0.20;;;;;;;17.32;60.41;99874.38;5070724;28;20044;-64
2023/10/30 01:41:58;;;;;;;0.20;0.20;;;;;;;16.96;62.80;99888.72;5070713;28;20132;-63
2023/10/30 01:44:23;;;;;;;0.20;0.20;;;;;;;17.27;60.78;99884.50;5070364;28;20373;-62
2023/10/30 01:46:48;;;;;;;0.10;0.10;;;;;;;18.21;57.63;99886.06;5070787;28;20025;-62
2023/10/30 01:49:14;;;;;;;0.20;0.20;;;;;;;17.55;59.18;99884.38;5070611;28;20087;-62
2023/10/30 01:51:40;;;;;;;0.20;0.20;;;;;;;16.72;62.48;99891.44;5070308;28;20037;-62
2023/10/30 01:54:06;;;;;;;0.13;0.13;;;;;;;16.97;61.32;99893.03;5070497;28;20051;-62
2023/10/30 01:56:32;;;;;;;0.20;0.20;;;;;;;16.47;63.88;99884.31;5070349;28;20028;-62
2023/10/30 01:58:59;;;;;;;0.20;0.20;;;;;;;16.98;62.11;99887.31;5070644;28;20033;-63
2023/10/30 02:01:25;;;;;;;0.20;0.20;;;;;;;17.74;59.36;99894.44;5069967;28;20567;-62
2023/10/30 02:03:52;;;;;;;0.20;0.20;;;;;;;17.53;60.00;99893.97;5070313;28;20033;-62
2023/10/30 02:06:17;;;;;;;0.22;0.22;;;;;;;17.02;61.62;99893.78;5070271;28;20059;-63
2023/10/30 02:08:43;;;;;;;0.28;0.28;;;;;;;17.94;58.11;99892.22;5070263;28;20052;-62
2023/10/30 02:11:09;;;;;;;0.20;0.20;;;;;;;17.47;60.46;99895.88;5070503;28;20050;-62
2023/10/30 02:13:34;;;;;;;0.32;0.32;;;;;;;17.66;59.13;99892.41;5070040;28;20059;-63
2023/10/30 02:16:00;;;;;;;0.30;0.30;;;;;;;18.44;56.82;99895.22;5070072;28;20033;-63
2023/10/30 02:18:25;;;;;;;0.20;0.20;;;;;;;18.37;56.68;99887.41;5069693;28;20591;-63
2023/10/30 02:20:50;;;;;;;0.25;0.25;;;;;;;18.32;56.69;99904.63;5069824;28;20052;-63
2023/10/30 02:23:16;;;;;;;0.20;0.20;;;;;;;17.65;59.30;99901.66;5070106;28;20035;-62
2023/10/30 02:25:41;;;;;;;0.20;0.20;;;;;;;17.59;59.90;99902.84;5070457;28;20479;-62
2023/10/30 02:28:07;;;;;;;0.28;0.28;;;;;;;17.36;59.65;99902.56;5083010;28;20036;-63
2023/10/30 02:30:32;;;;;;;0.30;0.30;;;;;;;17.15;61.05;99894.97;5055646;28;20037;-63
2023/10/30 02:32:57;;;;;;;0.30;0.30;;;;;;;17.72;58.93;99893.94;5069870;28;20427;-63
2023/10/30 02:35:23;;;;;;;0.30;0.30;;;;;;;17.47;60.00;99905.97;5069735;28;20822;-64
2023/10/30 02:37:48;;;;;;;0.30;0.30;;;;;;;17.18;60.96;99897.09;5070644;28;20416;-62
2023/10/30 02:40:14;;;;;;;0.30;0.30;;;;;;;17.21;60.88;99899.25;5069928;28;20105;-64
2023/10/30 02:42:40;;;;;;;0.20;0.20;;;;;;;17.09;62.09;99898.84;5051389;28;20031;-63
2023/10/30 02:45:07;;;;;;;0.10;0.10;;;;;;;17.51;60.30;99899.66;5069614;28;20155;-62
2023/10/30 02:47:33;;;;;;;0.17;0.17;;;;;;;17.17;61.78;99914.50;5069623;28;20032;-62
2023/10/30 02:49:58;;;;;;;0.20;0.20;;;;;;;17.28;60.74;99918.69;5070239;28;20090;-62
2023/10/30 02:52:24;;;;;;;0.30;0.30;;;;;;;17.53;59.78;99907.53;5069754;28;20489;-62
2023/10/30 02:54:50;;;;;;;0.20;0.20;;;;;;;17.40;60.30;99916.38;5069826;28;20036;-62
2023/10/30 02:57:15;;;;;;;0.20;0.20;;;;;;;17.90;58.39;99923.00;5069715;28;20043;-63
2023/10/30 02:59:42;;;;;;;0.20;0.20;;;;;;;17.55;59.10;99918.94;5069399;28;20744;-62
2023/10/30 03:02:07;;;;;;;0.20;0.20;;;;;;;18.02;58.31;99918.75;5070002;28;20032;-62
2023/10/30 03:04:33;;;;;;;0.20;0.20;;;;;;;17.43;60.24;99910.38;5069615;28;20033;-62
2023/10/30 03:06:59;;;;;;;0.30;0.30;;;;;;;17.09;61.93;99915.16;5069667;28;20033;-62
2023/10/30 03:09:26;;;;;;;0.10;0.10;;;;;;;17.70;60.02;99912.44;5069694;28;20518;-63
2023/10/30 03:11:51;;;;;;;0.25;0.25;;;;;;;17.14;61.44;99915.09;5069565;28;20124;-63
2023/10/30 03:14:17;;;;;;;0.30;0.30;;;;;;;17.65;60.18;99918.75;5053031;28;20116;-63
2023/10/30 03:16:42;;;;;;;0.30;0.30;;;;;;;17.37;60.30;99916.97;5073606;28;20029;-62
2023/10/30 03:19:08;;;;;;;0.15;0.15;;;;;;;16.39;64.03;99936.47;5073381;28;20041;-63
2023/10/30 03:21:33;;;;;;;0.40;0.40;;;;;;;16.97;62.84;99934.56;5073028;28;20052;-63
2023/10/30 03:23:59;;;;;;;0.20;0.20;;;;;;;17.81;59.40;99925.59;5083069;28;20042;-63
2023/10/30 03:26:25;;;;;;;0.30;0.30;;;;;;;17.16;61.93;99932.69;5081242;28;20031;-62
2023/10/30 03:28:50;;;;;;;0.20;0.20;;;;;;;17.68;59.61;99929.03;5073795;28;20449;-62
2023/10/30 03:31:16;;;;;;;0.20;0.20;;;;;;;17.44;60.60;99928.25;5072839;28;20643;-61
2023/10/30 03:33:41;;;;;;;0.30;0.30;;;;;;;17.51;60.49;99932.25;5073054;28;20039;-61
2023/10/30 03:36:07;;;;;;;0.10;0.10;;;;;;;17.92;58.45;99935.22;5072954;28;20123;-63
2023/10/30 03:38:32;;;;;;;0.13;0.13;;;;;;;17.73;59.12;99939.03;5072874;28;20044;-62
2023/10/30 03:40:58;;;;;;;0.22;0.22;;;;;;;17.78;58.71;99937.06;5073310;28;20021;-63
2023/10/30 03:43:23;;;;;;;0.20;0.20;;;;;;;17.86;58.13;99936.41;5072941;28;20043;-62
2023/10/30 03:45:49;;;;;;;0.20;0.20;;;;;;;18.06;58.01;99932.56;5072767;28;20408;-63
2023/10/30 03:48:14;;;;;;;0.20;0.20;;;;;;;17.93;58.04;99946.88;5072699;28;20063;-63
2023/10/30 03:50:40;;;;;;;0.30;0.30;;;;;;;17.41;60.15;99943.22;5072939;28;20036;-63
2023/10/30 03:53:06;;;;;;;0.20;0.20;;;;;;;16.94;62.14;99943.28;5073149;28;20754;-62
2023/10/30 03:55:32;;;;;;;0.20;0.20;;;;;;;17.43;60.59;99949.19;5072682;28;20132;-63
2023/10/30 03:57:57;;;;;;;0.30;0.30;;;;;;;17.36;61.38;99939.78;5072384;28;20108;-63
2023/10/30 04:00:23;;;;;;;0.20;0.20;;;;;;;17.04;61.10;99947.78;5072515;28;20064;-62
2023/10/30 04:02:48;;;;;;;0.20;0.20;;;;;;;17.06;62.20;99948.31;5072476;28;20043;-61
2023/10/30 04:05:14;;;;;;;0.20;0.20;;;;;;;17.40;60.50;99947.06;5072887;28;20044;-62
2023/10/30 04:07:39;;;;;;;0.20;0.20;;;;;;;17.38;60.66;99941.09;5072365;28;20037;-62
2023/10/30 04:10:05;;;;;;;0.20;0.20;;;;;;;16.82;62.58;99944.78;5072287;28;20082;-63
2023/10/30 04:12:31;;;;;;;0.30;0.30;;;;;;;17.61;59.83;99941.38;5072510;28;20028;-63
2023/10/30 04:14:57;;;;;;;0.30;0.30;;;;;;;17.30;60.29;99947.19;5072193;28;20435;-63
2023/10/30 04:17:23;;;;;;;0.30;0.30;;;;;;;17.11;62.43;99942.81;5071896;28;20047;-62
2023/10/30 04:19:48;;;;;;;0.30;0.30;;;;;;;17.62;60.10;99943.00;5060136;28;20395;-61
2023/10/30 04:22:13;;;;;;;0.20;0.20;;;;;;;17.04;62.36;99937.72;5083689;28;20110;-61
2023/10/30 04:24:39;;;;;;;0.30;0.30;;;;;;;17.78;59.91;99934.34;5072312;28;20037;-61
2023/10/30 04:27:05;;;;;;;0.10;0.10;;;;;;;17.28;61.03;99930.38;5072115;28;20040;-64
2023/10/30 04:29:30;;;;;;;0.30;0.30;;;;;;;17.65;59.77;99931.56;5072072;28;20032;-62
2023/10/30 04:31:56;;;;;;;0.30;0.30;;;;;;;17.44;60.37;99936.41;5072539;28;20012;-62
2023/10/30 04:34:21;;;;;;;0.20;0.20;;;;;;;17.54;60.65;99936.31;5071994;28;20366;-63
2023/10/30 04:36:47;;;;;;;0.30;0.30;;;;;;;18.02;58.44;99940.50;5071861;28;20032;-62
2023/10/30 04:39:13;;;;;;;0.20;0.20;;;;;;;17.32;61.06;99930.59;5071937;28;20435;-62
2023/10/30 04:41:39;;;;;;;0.25;0.25;;;;;;;17.38;60.62;99924.81;5053184;28;20052;-62
2023/10/30 04:44:04;;;;;;;0.20;0.20;;;;;;;17.60;59.45;99924.28;5072323;28;20591;-62
2023/10/30 04:46:30;;;;;;;0.10;0.10;;;;;;;18.03;57.96;99916.81;5071541;28;20040;-62
2023/10/30 04:48:55;;;;;;;0.40;0.40;;;;;;;17.65;59.64;99913.31;5071562;28;20666;-63
2023/10/30 04:51:20;;;;;;;0.20;0.20;;;;;;;17.62;59.95;99919.34;5071322;28;20449;-62
2023/10/30 04:53:46;;;;;;;0.30;0.30;;;;;;;18.03;57.76;99914.09;5071667;28;20043;-62
2023/10/30 04:56:11;;;;;;;0.20;0.20;;;;;;;18.07;57.26;99915.13;5071924;28;20021;-62
2023/10/30 04:58:37;;;;;;;0.20;0.20;;;;;;;17.90;58.19;99923.84;5071060;28;20039;-62
2023/10/30 05:01:09;;;;;;;0.20;0.20;;;;;;;17.96;58.37;99921.84;5068428;28;20078;-63
2023/10/30 05:03:37;;;;;;;0.30;0.30;;;;;;;17.43;59.43;99919.28;5070035;28;20162;-62
2023/10/30 05:06:04;;;;;;;0.28;0.28;;;;;;;17.64;59.22;99919.88;5070149;28;20478;-62
2023/10/30 05:08:30;;;;;;;0.30;0.30;;;;;;;17.55;59.84;99925.13;5069663;28;20034;-62
2023/10/30 05:10:55;;;;;;;0.25;0.25;;;;;;;17.53;59.33;99921.13;5056733;28;20028;-62
2023/10/30 05:13:20;;;;;;;0.15;0.15;;;;;;;17.51;59.33;99921.38;5069169;28;20081;-62
2023/10/30 05:15:46;;;;;;;0.50;0.50;;;;;;;17.41;60.46;99921.50;5073387;28;20039;-62
2023/10/30 05:18:13;;;;;;;0.22;0.22;;;;;;;17.42;60.57;99916.88;5082260;28;20489;-62
2023/10/30 05:20:38;;;;;;;0.30;0.30;;;;;;;17.59;59.62;99924.56;5052416;28;20059;-62
2023/10/30 05:23:04;;;;;;;0.20;0.20;;;;;;;17.62;59.08;99919.34;5071021;28;20056;-63
2023/10/30 05:25:29;;;;;;;0.20;0.20;;;;;;;17.02;62.36;99914.69;5070151;28;20090;-63
2023/10/30 05:27:54;;;;;;;0.32;0.32;;;;;;;17.68;59.60;99925.50;5069950;28;20028;-63
2023/10/30 05:30:20;;;;;;;0.40;0.40;;;;;;;17.16;60.85;99935.41;5069829;28;20047;-63
2023/10/30 05:32:45;;;;;;;0.20;0.20;;;;;;;17.25;61.76;99936.41;5069524;28;20085;-62
2023/10/30 05:35:11;;;;;;;0.17;0.17;;;;;;;16.89;61.66;99943.34;5070109;28;20107;-63
2023/10/30 05:37:36;;;;;;;0.20;0.20;;;;;;;17.18;61.25;99946.78;5068935;28;20049;-63
2023/10/30 05:40:02;;;;;;;0.17;0.17;;;;;;;17.06;62.13;99951.81;5069754;28;20047;-61
2023/10/30 05:42:27;;;;;;;0.30;0.30;;;;;;;17.16;61.89;99961.78;5070068;28;20036;-64
2023/10/30 05:44:53;;;;;;;0.20;0.20;;;;;;;16.81;62.66;99951.28;5069959;28;20572;-63
2023/10/30 05:47:18;;;;;;;0.30;0.30;;;;;;;16.92;62.41;99952.81;5069900;28;20401;-63
2023/10/30 05:49:45;;;;;;;0.30;0.30;;;;;;;17.29;61.11;99948.28;5070471;28;20082;-62
2023/10/30 05:52:10;;;;;;;0.20;0.20;;;;;;;16.97;62.32;99952.75;5069936;28;20497;-63
2023/10/30 05:54:36;;;;;;;0.30;0.30;;;;;;;16.99;62.33;99945.13;5070000;28;20044;-63
2023/10/30 05:57:01;;;;;;;0.40;0.40;;;;;;;17.29;60.80;99940.16;5069903;28;20033;-62
2023/10/30 05:59:26;;;;;;;0.30;0.30;;;;;;;17.58;59.82;99928.38;5069758;28;20028;-62
2023/10/30 06:01:52;;;;;;;0.20;0.20;;;;;;;17.39;60.38;99947.34;5070270;28;20039;-62
2023/10/30 06:04:17;;;;;;;0.30;0.30;;;;;;;17.10;62.29;99955.56;5067028;28;20484;-63
2023/10/30 06:06:43;;;;;;;0.30;0.30;;;;;;;17.16;61.88;99967.19;5069883;28;20477;-63
2023/10/30 06:09:08;;;;;;;0.10;0.10;;;;;;;17.57;59.81;99952.03;5070726;28;20123;-61
2023/10/30 06:11:33;;;;;;;0.30;0.30;;;;;;;17.21;60.62;99951.66;5069918;28;20060;-62
2023/10/30 06:13:59;;;;;;;0.20;0.20;;;;;;;17.54;59.92;99941.75;5086495;28;20518;-63
2023/10/30 06:16:24;;;;;;;0.30;0.30;;;;;;;17.53;59.80;99951.00;5081232;28;20154;-63
2023/10/30 06:18:49;;;;;;;0.17;0.17;;;;;;;17.29;61.15;99961.88;5089592;28;20213;-62
2023/10/30 06:21:19;;;;;;;0.20;0.20;;;;;;;17.58;59.63;99967.22;5079926;28;20056;-62
2023/10/30 06:23:45;;;;;;;0.38;0.38;;;;;;;17.06;61.71;99976.25;5085242;28;20104;-62
2023/10/30 06:26:13;;;;;;;0.30;0.30;;;;;;;17.59;59.88;99970.75;5086715;28;20488;-63
2023/10/30 06:28:41;;;;;;;0.38;0.38;;;;;;;17.70;59.05;99975.75;5070750;28;20040;-62
2023/10/30 06:31:16;;;;;;;0.30;0.30;;;;;;;17.66;59.23;99976.63;5074200;28;20062;-63
2023/10/30 06:33:42;;;;;;;0.20;0.20;;;;;;;16.95;62.20;99993.75;5077779;28;20074;-62
2023/10/30 06:36:08;;;;;;;0.20;0.20;;;;;;;17.21;60.76;99991.56;5069776;28;20086;-63
2023/10/30 06:38:34;;;;;;;0.20;0.20;;;;;;;17.18;61.37;99983.97;5069711;28;20036;-62
2023/10/30 06:40:59;;;;;;;0.20;0.20;;;;;;;17.50;59.99;99987.72;5070216;28;20503;-62
2023/10/30 06:43:25;;;;;;;0.25;0.25;;;;;;;17.22;61.34;99990.44;5069839;28;20040;-62
2023/10/30 06:46:01;;;;;;;0.35;0.35;;;;;;;17.06;62.63;99989.81;5069948;28;20042;-63
2023/10/30 06:48:26;;;;;;;0.30;0.30;;;;;;;17.46;60.74;99978.50;5069735;28;20048;-63
2023/10/30 06:50:52;;;;;;;0.30;0.30;;;;;;;17.72;59.54;99979.00;5055777;28;20481;-63
2023/10/30 06:53:17;;;;;;;0.30;0.30;;;;;;;17.72;59.66;99979.00;5073609;28;20431;-62
2023/10/30 06:55:42;;;;;;;0.20;0.20;;;;;;;17.32;61.30;99985.72;5074225;28;20460;-63
2023/10/30 06:58:08;;;;;;;0.20;0.20;;;;;;;17.52;60.94;99984.69;5073277;28;20141;-62
2023/10/30 07:00:33;;;;;;;0.20;0.20;;;;;;;17.64;60.34;99995.94;5073799;28;20047;-62
2023/10/30 07:02:59;;;;;;;0.20;0.20;;;;;;;17.69;60.14;100014.88;5073732;28;20495;-63
2023/10/30 07:05:24;;;;;;;0.30;0.30;;;;;;;17.90;59.02;100004.56;5073651;28;20050;-62
2023/10/30 07:07:49;;;;;;;0.20;0.20;;;;;;;17.78;59.54;100004.19;5074160;28;20051;-62
2023/10/30 07:10:15;;;;;;;0.20;0.20;;;;;;;17.85;59.26;100005.44;5056556;28;20056;-63
2023/10/30 07:12:40;;;;;;;0.40;0.40;;;;;;;17.96;59.09;100009.66;5073321;28;20130;-62
2023/10/30 07:15:06;;;;;;;0.28;0.28;;;;;;;17.87;59.13;100026.88;5073280;28;20044;-63
2023/10/30 07:17:31;;;;;;;0.28;0.28;;;;;;;17.78;59.42;100018.59;5072927;28;20119;-63
2023/10/30 07:19:57;;;;;;;0.20;0.20;;;;;;;17.98;58.95;100023.75;5073377;28;20591;-64
2023/10/30 07:22:22;;;;;;;0.20;0.20;;;;;;;18.12;58.69;100024.59;5072683;28;20156;-62
2023/10/30 07:24:48;;;;;;;0.30;0.30;;;;;;;17.93;59.07;100039.31;5073072;28;20537;-63
2023/10/30 07:27:13;;;;;;;0.30;0.30;;;;;;;18.01;59.07;100027.78;5073306;28;20627;-62
2023/10/30 07:29:39;;;;;;;0.22;0.22;;;;;;;18.04;59.12;100028.00;5073155;28;20041;-63
2023/10/30 07:32:05;;;;;;;0.22;0.22;;;;;;;18.11;58.64;100022.19;5073546;28;20028;-63
2023/10/30 07:34:30;;;;;;;0.20;0.20;;;;;;;18.11;58.62;100025.72;5073106;28;20435;-65
2023/10/30 07:36:55;;;;;;;0.28;0.28;;;;;;;17.93;59.99;100026.53;5072964;28;20047;-65
2023/10/30 07:39:21;;;;;;;0.30;0.30;;;;;;;17.97;60.25;100032.19;5073063;28;20139;-63
2023/10/30 07:41:46;;;;;;;0.30;0.30;;;;;;;18.22;59.32;100034.56;5072970;28;20043;-63
2023/10/30 07:44:11;;;;;;;0.20;0.20;;;;;;;18.28;59.23;100034.16;5073571;28;20032;-62
2023/10/30 07:46:37;;;;;;;0.20;0.20;;;;;;;18.12;59.88;100035.50;5072503;28;20131;-62
2023/10/30 07:49:04;;;;;;;0.20;0.20;;;;;;;18.10;60.65;100045.06;5072488;28;20123;-63
2023/10/30 07:51:29;;;;;;;0.20;0.20;;;;;;;17.86;61.88;100041.59;5072801;28;20033;-62
2023/10/30 07:53:54;;;;;;;0.30;0.30;;;;;;;17.44;63.35;100053.22;5072586;28;20116;-63
2023/10/30 07:56:20;;;;;;;0.30;0.30;;;;;;;18.32;60.96;100035.19;5072756;28;20102;-63
2023/10/30 07:58:45;;;;;;;0.20;0.20;;;;;;;17.33;64.25;100047.09;5072884;28;20051;-64
2023/10/30 08:01:11;;;;;;;0.20;0.20;;;;;;;18.35;61.41;100042.78;5072141;28;20127;-64
2023/10/30 08:03:36;;;;;;;0.10;0.10;;;;;;;17.89;63.18;100049.97;5072487;28;20044;-63
2023/10/30 08:06:02;;;;;;;0.20;0.20;;;;;;;18.57;60.83;100053.06;5072616;28;20510;-62
2023/10/30 08:08:28;;;;;;;0.20;0.20;;;;;;;18.07;61.81;100062.75;5065298;28;20509;-62
2023/10/30 08:10:54;;;;;;;0.20;0.20;;;;;;;17.52;65.10;100063.47;5054476;28;20648;-63
2023/10/30 08:13:19;;;;;;;0.15;0.15;;;;;;;18.45;61.37;100062.78;5071992;28;20040;-63
2023/10/30 08:15:45;;;;;;;0.25;0.25;;;;;;;18.47;62.00;100057.84;5072352;28;20032;-64
2023/10/30 08:18:10;;;;;;;0.20;0.20;;;;;;;18.52;61.48;100066.75;5071310;28;20084;-63
2023/10/30 08:20:35;;;;;;;0.20;0.20;;;;;;;18.73;60.76;100069.97;5071617;28;20048;-62
2023/10/30 08:23:01;;;;;;;0.17;0.17;;;;;;;18.70;61.92;100071.34;5072265;28;20745;-63
2023/10/30 08:25:27;;;;;;;0.30;0.30;;;;;;;18.45;63.49;100060.88;5071326;28;20029;-62
2023/10/30 08:27:52;;;;;;;0.13;0.13;;;;;;;18.85;61.27;100064.88;5052895;28;20032;-63
2023/10/30 08:30:18;;;;;;;0.10;0.10;;;;;;;18.51;62.47;100067.03;5072058;28;20032;-63
2023/10/30 08:32:43;;;;;;;0.20;0.20;;;;;;;17.95;64.93;100073.25;5071593;28;20492;-64
2023/10/30 08:35:09;;;;;;;0.30;0.30;;;;;;;18.04;64.67;100055.19;5072148;28;20066;-63
2023/10/30 08:37:34;;;;;;;0.20;0.20;;;;;;;19.32;59.64;100061.78;5071201;28;20039;-63
2023/10/30 08:39:59;;;;;;;0.20;0.20;;;;;;;18.66;61.39;100045.84;5071724;28;20029;-62
2023/10/30 08:42:25;;;;;;;0.20;0.20;;;;;;;19.44;60.10;100062.13;5071701;28;20426;-62
2023/10/30 08:44:50;;;;;;;0.20;0.20;;;;;;;18.91;61.47;100060.91;5071700;28;20033;-63
2023/10/30 08:47:16;;;;;;;0.10;0.10;;;;;;;18.94;62.20;100063.88;5052690;28;20484;-65
2023/10/30 08:49:42;;;;;;;0.15;0.15;;;;;;;19.37;60.24;100052.75;5072050;28;20032;-64
2023/10/30 08:52:07;;;;;;;0.20;0.20;;;;;;;20.32;56.74;100050.75;5071538;28;20040;-64
2023/10/30 08:54:32;;;;;;;0.20;0.20;;;;;;;20.23;57.27;100054.50;5071658;28;20044;-64
2023/10/30 08:56:58;;;;;;;0.20;0.20;;;;;;;20.47;56.19;100052.28;5071048;28;20041;-65
2023/10/30 08:59:26;;;;;;;0.20;0.20;;;;;;;20.71;55.64;100044.63;5071468;28;20024;-64
2023/10/30 09:01:52;;;;;;;0.20;0.20;;;;;;;20.28;56.54;100043.47;5072741;28;20039;-64
2023/10/30 09:04:18;;;;;;;0.20;0.20;;;;;;;19.57;58.64;100041.47;5070985;28;20049;-65
2023/10/30 09:06:43;;;;;;;0.17;0.17;;;;;;;19.86;57.98;100042.75;5070724;28;20041;-61
2023/10/30 09:09:11;;;;;;;0.20;0.20;;;;;;;20.44;56.86;100044.75;5071164;28;20511;-64
2023/10/30 09:11:36;;;;;;;0.20;0.20;;;;;;;20.37;56.87;100044.34;5070378;28;20044;-62
2023/10/30 09:14:02;;;;;;;0.13;0.13;;;;;;;20.44;56.90;100050.19;5071559;28;20539;-62
2023/10/30 09:16:27;;;;;;;0.10;0.10;;;;;;;19.70;59.35;100052.34;5070881;28;20086;-64
2023/10/30 09:18:54;;;;;;;0.10;0.10;;;;;;;19.68;58.82;100048.31;5070628;28;20455;-62
2023/10/30 09:21:20;;;;;;;0.30;0.30;;;;;;;20.13;57.90;100050.88;5070824;28;20052;-63
2023/10/30 09:23:46;;;;;;;0.20;0.20;;;;;;;20.17;57.42;100033.91;5070896;28;20028;-64
2023/10/30 09:26:11;;;;;;;0.30;0.30;;;;;;;20.20;57.66;100061.41;5071189;28;20099;-65
2023/10/30 09:28:37;;;;;;;0.20;0.20;;;;;;;20.59;56.59;100044.38;5052656;28;20028;-63
2023/10/30 09:31:03;;;;;;;0.10;0.10;;;;;;;20.74;55.87;100050.25;5070865;28;20471;-64
2023/10/30 09:33:28;;;;;;;0.17;0.17;;;;;;;20.84;55.47;100044.53;5070621;28;20051;-63
2023/10/30 09:35:54;;;;;;;0.30;0.30;;;;;;;21.25;54.49;100040.75;5070527;28;20044;-63
2023/10/30 09:38:19;;;;;;;0.20;0.20;;;;;;;20.58;56.09;100043.53;5070188;28;20041;-63
2023/10/30 09:40:58;;;;;;;0.22;0.22;;;;;;;21.18;54.67;100043.94;5071146;28;20426;-63
2023/10/30 09:43:37;;;;;;;0.20;0.20;;;;;;;20.58;57.66;100042.75;5070551;28;20047;-64
2023/10/30 09:46:06;;;;;;;0.20;0.20;;;;;;;21.03;55.26;100049.03;5070469;28;20548;-64
2023/10/30 09:48:32;;;;;;;0.17;0.17;;;;;;;21.12;56.03;100036.19;5069856;28;20055;-63
2023/10/30 09:50:58;;;;;;;0.20;0.20;;;;;;;21.18;54.95;100040.41;5070538;28;20098;-63
2023/10/30 09:53:25;;;;;;;0.20;0.20;;;;;;;21.48;55.03;100029.44;5070380;28;20418;-63
2023/10/30 09:55:54;;;;;;;0.10;0.10;;;;;;;21.12;55.96;100037.00;5070559;28;20020;-63
2023/10/30 09:58:23;;;;;;;0.20;0.20;;;;;;;20.86;56.48;100047.75;5069492;28;20039;-63
2023/10/30 10:00:48;;;;;;;0.20;0.20;;;;;;;21.40;54.64;100054.84;5077179;28;20047;-63
2023/10/30 10:03:14;;;;;;;0.10;0.10;;;;;;;21.04;55.32;100053.34;5090289;28;20117;-63
2023/10/30 10:05:40;;;;;;;0.20;0.20;;;;;;;20.60;56.83;100059.63;5085587;28;20047;-62
2023/10/30 10:08:05;;;;;;;0.20;0.20;;;;;;;20.59;57.81;100058.00;5070460;28;20024;-63
2023/10/30 10:10:54;;;;;;;0.17;0.17;;;;;;;20.93;56.58;100061.00;5069834;28;20047;-63
2023/10/30 10:13:20;;;;;;;0.15;0.15;;;;;;;20.29;57.96;100061.44;5070122;28;20032;-63
2023/10/30 10:15:45;;;;;;;0.10;0.10;;;;;;;20.29;58.67;100059.53;5070040;28;20047;-62
2023/10/30 10:18:31;;;;;;;0.10;0.10;;;;;;;21.11;56.04;100056.47;5069583;28;20432;-62
2023/10/30 10:20:59;;;;;;;0.22;0.22;;;;;;;21.54;54.42;100052.78;5069614;28;20118;-63
2023/10/30 10:23:26;;;;;;;0.20;0.20;;;;;;;20.59;57.31;100058.81;5070041;28;20081;-62
2023/10/30 10:25:55;;;;;;;0.20;0.20;;;;;;;21.70;53.65;100059.41;5070734;28;20020;-62
2023/10/30 10:28:22;;;;;;;0.10;0.10;;;;;;;20.91;55.92;100061.28;5069604;28;20540;-62
2023/10/30 10:30:48;;;;;;;0.10;0.10;;;;;;;21.24;54.75;100056.38;5069953;28;20033;-63
2023/10/30 10:33:13;;;;;;;0.10;0.10;;;;;;;20.69;56.01;100055.84;5069567;28;20043;-63
2023/10/30 10:35:41;;;;;;;0.20;0.20;;;;;;;21.62;54.84;100062.16;5050960;28;20052;-63
2023/10/30 10:38:13;;;;;;;0.10;0.10;;;;;;;21.68;53.51;100050.72;5052332;28;20101;-62
2023/10/30 10:40:40;;;;;;;0.10;0.10;;;;;;;21.58;53.70;100051.00;5069178;28;20140;-62
2023/10/30 10:43:07;;;;;;;0.10;0.10;;;;;;;21.70;53.29;100053.13;5069533;28;20089;-62
2023/10/30 10:45:32;;;;;;;0.10;0.10;;;;;;;21.42;55.16;100044.38;5069583;28;20063;-63
2023/10/30 10:47:58;;;;;;;0.10;0.10;;;;;;;21.31;55.58;100043.03;5069205;28;20038;-63
2023/10/30 10:50:23;;;;;;;0.10;0.10;;;;;;;22.79;51.46;100035.53;5069568;28;20035;-63
2023/10/30 10:52:48;;;;;;;0.10;0.10;;;;;;;22.08;53.56;100047.94;5051477;28;20437;-63
2023/10/30 10:55:18;;;;;;;0.10;0.10;;;;;;;22.03;52.76;100037.16;5051470;28;20048;-63
2023/10/30 10:57:59;;;;;;;0.10;0.10;;;;;;;21.48;55.15;100031.38;5068883;28;20508;-63
2023/10/30 11:00:30;;;;;;;0.10;0.10;;;;;;;21.57;55.09;100015.78;5069147;28;20388;-63
2023/10/30 11:03:04;;;;;;;0.15;0.15;;;;;;;22.61;53.25;100008.19;5069293;28;20039;-64
2023/10/30 11:05:30;;;;;;;0.10;0.10;;;;;;;21.46;54.63;100011.75;5068996;28;20033;-63
2023/10/30 11:08:08;;;;;;;0.10;0.10;;;;;;;22.09;53.24;100014.81;5069793;28;20052;-62
2023/10/30 11:11:22;;;;;;;0.10;0.10;;;;;;;22.26;52.57;100014.78;5069226;28;20036;-62
2023/10/30 11:14:22;;;;;;;0.10;0.10;;;;;;;23.29;49.93;100017.34;4987496;28;20053;-62
2023/10/30 11:17:00;;;;;;;0.30;0.30;;;;;;;22.55;51.25;100005.91;4987209;28;20050;-62
2023/10/30 11:19:26;;;;;;;0.03;0.03;;;;;;;22.46;52.24;100000.44;4986823;28;20070;-63
2023/10/30 11:21:51;;;;;;;0.10;0.10;;;;;;;21.77;54.14;99999.59;4986801;28;20047;-65
2023/10/30 11:24:39;;;;;;;0.20;0.20;;;;;;;22.31;53.16;99998.19;4987065;28;20556;-63
2023/10/30 11:27:25;;;;;;;0.10;0.10;;;;;;;23.20;50.76;100003.66;4989530;28;20042;-64